Terminal Aerodrome Forecast
Issued by NWS

Home | Current Version | Previous Version | Text Only | Print | Product List | Glossary On
Versions: 1 2 3 4 5 6 7 8 9 10 11 12
000
FTUS46 KSGX 281124
TAFSNA
TAF
KSNA 281124Z 2812/2912 VRB03KT P6SM FEW250
     FM281900 22009KT P6SM SCT200
     FM290200 VRB04KT P6SM FEW010
     FM291000 VRB03KT P6SM BKN010=

USA.gov is the U.S. government's official web portal to all federal, state and local government web resources and services.